Time;durP1;ratioP1;P1;durP2;ratioP2;P2;SDS_P1;SDS_P2;PMS_P1;PMS_P2;Temp;Humidity;BMP_temperature;BMP_pressure;BME280_temperature;BME280_humidity;BME280_pressure;Samples;Min_cycle;Max_cycle;Signal;HPM_P1;HPM_P2
2023/04/02 00:07:47;;;;;;;;;;;;;;;4.74;79.90;101642.69;20929385;28;20240;-59
2023/04/02 00:18:14;;;;;;;;;;;;;;;4.68;80.21;101658.03;20933046;28;19928;-59
2023/04/02 00:28:35;;;;;;;;;;;;;;;4.43;77.66;101680.91;21041104;28;19931;-59
2023/04/02 00:38:58;;;;;;;;;;;;;;;4.35;79.06;101682.53;21037122;28;20357;-59
2023/04/02 00:49:37;;;;;;;;;;;;;;;4.22;79.85;101712.28;21023701;28;19935;-60
2023/04/02 01:00:11;;;;;;;;;;;;;;;4.11;79.57;101724.13;21029539;28;19925;-58
2023/04/02 01:10:48;;;;;;;;;;;;;;;3.97;79.25;101746.19;21020231;28;19933;-58
2023/04/02 01:21:24;;;;;;;;;;;;;;;3.93;80.52;101759.78;21005987;28;19967;-59
2023/04/02 01:31:47;;;;;;;;;;;;;;;3.83;79.89;101779.28;21035447;28;19931;-59
2023/04/02 01:42:12;;;;;;;;;;;;;;;3.72;79.85;101795.31;21017192;28;19924;-59
2023/04/02 01:52:37;;;;;;;;;;;;;;;3.67;79.69;101817.44;21049965;28;19954;-58
2023/04/02 02:03:00;;;;;;;;;;;;;;;3.58;80.27;101837.78;21036443;28;19932;-59
2023/04/02 02:13:21;;;;;;;;;;;;;;;3.53;79.98;101847.97;21020278;28;19928;-58
2023/04/02 02:23:43;;;;;;;;;;;;;;;3.46;80.37;101860.63;20983710;28;20592;-59
2023/04/02 02:34:08;;;;;;;;;;;;;;;3.38;80.19;101885.22;20936741;28;20325;-58
2023/04/02 02:44:32;;;;;;;;;;;;;;;3.31;79.52;101906.41;20954714;28;19932;-60
2023/04/02 02:54:59;;;;;;;;;;;;;;;3.25;78.29;101924.19;20944806;28;19928;-60
2023/04/02 03:05:22;;;;;;;;;;;;;;;3.29;79.04;101946.44;20940571;28;20321;-60
2023/04/02 03:15:52;;;;;;;;;;;;;;;3.27;79.51;101963.44;20925812;28;19967;-59
2023/04/02 03:26:17;;;;;;;;;;;;;;;3.16;77.91;101973.50;20951478;28;19928;-59
2023/04/02 03:37:02;;;;;;;;;;;;;;;3.17;78.40;101987.16;20935698;28;19946;-58
2023/04/02 03:47:42;;;;;;;;;;;;;;;3.18;78.91;102011.88;20946885;28;19933;-58
2023/04/02 03:58:16;;;;;;;;;;;;;;;3.15;79.10;102029.72;20933371;28;19929;-59
2023/04/02 04:08:53;;;;;;;;;;;;;;;3.02;78.94;102044.78;20926770;28;19937;-58
2023/04/02 04:19:20;;;;;;;;;;;;;;;3.04;79.54;102062.72;20934290;28;19925;-59
2023/04/02 04:29:53;;;;;;;;;;;;;;;3.01;79.78;102070.34;21049194;28;19928;-58
2023/04/02 04:40:18;;;;;;;;;;;;;;;2.99;79.24;102095.88;21031721;28;19954;-58
2023/04/02 04:50:51;;;;;;;;;;;;;;;2.99;78.45;102129.09;21027707;28;19928;-58
2023/04/02 05:01:18;;;;;;;;;;;;;;;3.02;78.23;102157.28;21021362;28;19978;-58
2023/04/02 05:11:42;;;;;;;;;;;;;;;2.92;79.63;102186.03;21024809;28;19951;-58
2023/04/02 05:22:11;;;;;;;;;;;;;;;2.83;79.96;102206.28;21003054;28;19928;-58
2023/04/02 05:32:35;;;;;;;;;;;;;;;2.77;80.21;102226.56;20941027;28;19925;-60
2023/04/02 05:42:59;;;;;;;;;;;;;;;2.72;80.53;102248.59;20937358;28;19928;-59
2023/04/02 05:53:20;;;;;;;;;;;;;;;2.76;80.90;102265.72;20941335;28;20504;-59
2023/04/02 06:04:00;;;;;;;;;;;;;;;2.79;79.90;102285.38;20927961;28;19925;-59
2023/04/02 06:14:22;;;;;;;;;;;;;;;2.94;80.98;102309.63;20930928;28;19994;-57
2023/04/02 06:24:45;;;;;;;;;;;;;;;3.01;80.24;102324.28;20917362;28;19936;-60
2023/04/02 06:35:11;;;;;;;;;;;;;;;3.15;80.42;102341.66;20941411;28;19928;-59
2023/04/02 06:45:36;;;;;;;;;;;;;;;3.28;80.73;102357.31;20939894;28;19997;-58
2023/04/02 06:56:01;;;;;;;;;;;;;;;3.50;80.04;102366.38;20940900;28;20396;-58
2023/04/02 07:06:23;;;;;;;;;;;;;;;3.66;79.90;102374.44;20931901;28;20441;-59
2023/04/02 07:16:44;;;;;;;;;;;;;;;3.79;78.22;102393.50;20947894;28;20260;-59
2023/04/02 07:27:06;;;;;;;;;;;;;;;3.91;78.45;102406.56;20998636;28;20036;-58
2023/04/02 07:37:27;;;;;;;;;;;;;;;4.12;77.83;102426.69;21025222;28;19942;-59
2023/04/02 07:47:49;;;;;;;;;;;;;;;4.29;77.17;102439.00;21032908;28;20333;-59
2023/04/02 07:58:10;;;;;;;;;;;;;;;4.48;77.86;102464.19;21031347;28;19924;-59
2023/04/02 08:08:31;;;;;;;;;;;;;;;4.54;75.92;102473.72;21012493;28;19928;-59
2023/04/02 08:18:53;;;;;;;;;;;;;;;4.70;76.50;102486.88;21022274;28;19978;-62
2023/04/02 08:29:14;;;;;;;;;;;;;;;4.91;76.58;102501.81;21018533;28;19963;-59
2023/04/02 08:39:36;;;;;;;;;;;;;;;5.20;73.70;102504.97;21027371;28;19978;-59
2023/04/02 08:50:00;;;;;;;;;;;;;;;5.49;75.14;102514.06;21015061;28;19971;-58
2023/04/02 09:00:34;;;;;;;;;;;;;;;5.64;72.79;102519.47;21043508;28;19924;-58
2023/04/02 09:11:16;;;;;;;;;;;;;;;5.84;75.11;102536.09;21033389;28;19931;-58
2023/04/02 09:21:45;;;;;;;;;;;;;;;6.04;74.06;102548.41;21065815;27;19928;-59
2023/04/02 09:32:17;;;;;;;;;;;;;;;5.95;73.93;102562.84;21025496;28;19928;-59
2023/04/02 09:42:39;;;;;;;;;;;;;;;6.11;74.64;102575.09;21020632;28;19924;-59
2023/04/02 09:53:23;;;;;;;;;;;;;;;6.27;74.14;102589.91;21023771;28;19986;-57
2023/04/02 10:03:45;;;;;;;;;;;;;;;6.60;74.61;102602.41;21033475;28;19932;-59
2023/04/02 10:14:15;;;;;;;;;;;;;;;6.88;71.23;102599.41;21037908;28;19928;-60
2023/04/02 10:24:36;;;;;;;;;;;;;;;7.20;71.85;102607.56;20998161;27;19961;-60
2023/04/02 10:35:21;;;;;;;;;;;;;;;7.50;70.69;102623.34;20937039;28;19925;-59
2023/04/02 10:45:48;;;;;;;;;;;;;;;7.68;71.72;102626.13;20937185;28;20817;-59
2023/04/02 10:56:11;;;;;;;;;;;;;;;8.15;71.04;102632.59;20931776;28;19924;-59
2023/04/02 11:06:56;;;;;;;;;;;;;;;8.13;71.17;102649.75;20946142;28;19936;-58
2023/04/02 11:17:27;;;;;;;;;;;;;;;8.24;71.29;102653.34;20941440;28;20386;-58
2023/04/02 11:27:49;;;;;;;;;;;;;;;8.64;69.87;102652.84;21024097;28;19967;-59
2023/04/02 11:38:10;;;;;;;;;;;;;;;8.95;69.12;102662.47;21035842;28;20065;-61
2023/04/02 11:48:34;;;;;;;;;;;;;;;8.97;69.69;102671.09;21024695;28;19924;-59
2023/04/02 11:59:05;;;;;;;;;;;;;;;8.92;69.12;102677.97;21035742;28;20011;-59
2023/04/02 12:09:28;;;;;;;;;;;;;;;9.07;70.06;102674.63;21048301;28;19931;-61
2023/04/02 12:19:52;;;;;;;;;;;;;;;8.91;66.63;102707.22;21023899;28;19994;-60
2023/04/02 12:30:16;;;;;;;;;;;;;;;9.09;67.69;102702.19;21012314;28;19928;-59
2023/04/02 12:40:38;;;;;;;;;;;;;;;9.43;67.32;102707.53;21017668;28;19928;-59
2023/04/02 12:51:00;;;;;;;;;;;;;;;9.55;65.19;102712.75;21027451;28;19993;-60
2023/04/02 13:01:23;;;;;;;;;;;;;;;9.57;65.82;102716.22;21012659;28;20334;-60
2023/04/02 13:11:44;;;;;;;;;;;;;;;9.46;63.87;102734.25;21026561;28;20025;-60
2023/04/02 13:22:27;;;;;;;;;;;;;;;9.57;66.31;102726.56;20979461;28;19979;-59
2023/04/02 13:32:48;;;;;;;;;;;;;;;9.52;61.00;102743.75;20950480;28;19952;-59
2023/04/02 13:43:17;;;;;;;;;;;;;;;9.60;62.41;102723.97;20942898;28;19939;-60
2023/04/02 13:53:39;;;;;;;;;;;;;;;9.65;63.74;102735.22;20927074;28;20015;-59
2023/04/02 14:04:01;;;;;;;;;;;;;;;9.71;64.96;102737.81;20945349;28;19924;-59
2023/04/02 14:14:22;;;;;;;;;;;;;;;9.89;61.06;102740.47;20935892;28;19947;-60
2023/04/02 14:25:03;;;;;;;;;;;;;;;10.21;58.58;102748.34;20947953;28;19998;-58
2023/04/02 14:35:30;;;;;;;;;;;;;;;10.46;56.92;102729.41;20937219;28;19928;-60
2023/04/02 14:45:57;;;;;;;;;;;;;;;10.66;60.00;102759.66;20929315;28;20260;-60
2023/04/02 14:56:20;;;;;;;;;;;;;;;10.82;58.28;102765.72;20942305;28;19964;-61
2023/04/02 15:06:43;;;;;;;;;;;;;;;11.60;56.95;102775.09;20926062;28;20236;-57
2023/04/02 15:17:08;;;;;;;;;;;;;;;11.90;55.80;102775.88;20968259;28;19990;-59
2023/04/02 15:27:48;;;;;;;;;;;;;;;12.46;60.16;102773.00;20926160;28;19929;-59
2023/04/02 15:38:21;;;;;;;;;;;;;;;12.72;55.07;102786.66;20937528;28;19982;-58
2023/04/02 15:49:03;;;;;;;;;;;;;;;12.68;58.20;102790.16;20939522;28;19924;-58
2023/04/02 15:59:33;;;;;;;;;;;;;;;12.71;60.08;102803.09;20934171;28;19932;-58
2023/04/02 16:10:01;;;;;;;;;;;;;;;12.81;55.22;102820.38;20927262;28;19929;-59
2023/04/02 16:20:26;;;;;;;;;;;;;;;12.69;54.96;102835.19;20944394;28;19924;-57
2023/04/02 16:30:59;;;;;;;;;;;;;;;13.01;54.94;102860.06;21033162;28;20396;-57
2023/04/02 16:41:40;;;;;;;;;;;;;;;13.09;54.19;102866.09;20995382;28;19931;-57
2023/04/02 16:52:21;;;;;;;;;;;;;;;11.99;57.01;102889.16;21030021;28;19954;-57
2023/04/02 17:02:49;;;;;;;;;;;;;;;11.44;59.02;102903.03;21016613;28;19925;-57
2023/04/02 17:13:16;;;;;;;;;;;;;;;11.11;60.09;102932.38;21025750;28;20445;-56
2023/04/02 17:23:57;;;;;;;;;;;;;;;10.50;59.09;102948.56;20980772;28;20331;-58
2023/04/02 17:34:22;;;;;;;;;;;;;;;10.04;60.86;102973.28;20922012;28;20432;-57
2023/04/02 17:44:44;;;;;;;;;;;;;;;9.60;58.78;102995.34;20909705;28;20299;-57
2023/04/02 17:55:14;;;;;;;;;;;;;;;9.34;58.58;103012.34;20927082;28;19948;-56
2023/04/02 18:05:53;;;;;;;;;;;;;;;9.06;56.71;103037.84;20924902;28;19956;-58
2023/04/02 18:16:23;;;;;;;;;;;;;;;8.79;61.47;103047.00;20925807;28;19990;-58
2023/04/02 18:26:45;;;;;;;;;;;;;;;8.53;59.90;103056.97;21000988;28;19932;-57
2023/04/02 18:37:14;;;;;;;;;;;;;;;8.40;59.27;103078.25;21030632;28;19928;-57
2023/04/02 18:47:41;;;;;;;;;;;;;;;8.16;62.04;103106.19;21045939;27;19928;-59
2023/04/02 18:58:05;;;;;;;;;;;;;;;7.92;61.62;103114.38;21039343;28;19999;-57
2023/04/02 19:08:33;;;;;;;;;;;;;;;7.75;60.42;103140.69;21043579;28;20007;-57
2023/04/02 19:19:15;;;;;;;;;;;;;;;7.64;61.01;103155.94;21029252;28;19977;-58
2023/04/02 19:30:15;;;;;;;;;;;;;;;7.40;56.74;103164.91;21039711;28;20027;-58
2023/04/02 19:40:55;;;;;;;;;;;;;;;7.32;64.22;103181.88;20973273;28;19964;-57
2023/04/02 19:51:16;;;;;;;;;;;;;;;7.13;64.06;103194.38;21023784;28;19928;-56
2023/04/02 20:01:38;;;;;;;;;;;;;;;6.97;64.54;103207.72;21017404;28;20418;-58
2023/04/02 20:11:59;;;;;;;;;;;;;;;6.90;61.70;103231.56;21016357;28;19925;-57
2023/04/02 20:22:21;;;;;;;;;;;;;;;6.76;65.30;103238.09;21031526;28;19986;-57
2023/04/02 20:32:42;;;;;;;;;;;;;;;6.58;65.81;103258.22;21010599;28;20257;-58
2023/04/02 20:43:04;;;;;;;;;;;;;;;6.41;65.16;103263.75;21053114;27;20354;-57
2023/04/02 20:53:27;;;;;;;;;;;;;;;6.33;66.02;103280.69;21021716;28;19936;-58
2023/04/02 21:03:52;;;;;;;;;;;;;;;6.21;65.94;103294.06;21024684;28;19985;-56
2023/04/02 21:14:14;;;;;;;;;;;;;;;6.03;65.40;103301.25;21019519;28;19985;-58
2023/04/02 21:24:35;;;;;;;;;;;;;;;5.90;67.11;103317.16;20969467;28;20334;-56
2023/04/02 21:34:56;;;;;;;;;;;;;;;5.78;65.17;103312.50;20916886;28;20011;-58
2023/04/02 21:45:18;;;;;;;;;;;;;;;5.64;66.64;103330.91;20916127;28;20003;-57
2023/04/02 21:55:39;;;;;;;;;;;;;;;5.55;67.02;103343.47;20949201;28;19933;-57
2023/04/02 22:06:02;;;;;;;;;;;;;;;5.42;67.11;103343.91;20938008;28;19928;-58
2023/04/02 22:16:25;;;;;;;;;;;;;;;5.31;68.47;103345.25;20945207;28;19932;-58
2023/04/02 22:26:47;;;;;;;;;;;;;;;5.18;68.59;103358.50;21014786;28;19932;-58
2023/04/02 22:37:08;;;;;;;;;;;;;;;5.01;66.17;103376.78;21022659;28;19955;-56
2023/04/02 22:47:29;;;;;;;;;;;;;;;4.90;67.73;103390.94;21022829;28;19956;-57
2023/04/02 22:57:51;;;;;;;;;;;;;;;4.90;68.97;103403.75;21069734;27;19930;-58
2023/04/02 23:08:12;;;;;;;;;;;;;;;4.79;69.16;103409.31;21035736;28;19974;-57
2023/04/02 23:18:34;;;;;;;;;;;;;;;4.67;70.26;103420.00;21027042;28;19969;-57
2023/04/02 23:28:57;;;;;;;;;;;;;;;4.53;68.17;103431.47;20940062;28;19958;-57
2023/04/02 23:39:19;;;;;;;;;;;;;;;4.47;71.57;103438.94;20934528;28;19978;-56
2023/04/02 23:49:46;;;;;;;;;;;;;;;4.36;71.19;103437.66;20917443;28;20474;-57
